Time;durP1;ratioP1;P1;durP2;ratioP2;P2;SDS_P1;SDS_P2;PMS_P1;PMS_P2;Temp;Humidity;BMP_temperature;BMP_pressure;BME280_temperature;BME280_humidity;BME280_pressure;Samples;Min_cycle;Max_cycle;Signal;HPM_P1;HPM_P2
2022/05/30 00:00:46;;;;;;;3.85;2.00;;;;;;;20.63;35.39;101662.84;5089182;28;20029;-75
2022/05/30 00:03:12;;;;;;;4.63;2.40;;;;;;;20.55;35.51;101655.47;5073044;28;20066;-76
2022/05/30 00:05:45;;;;;;;8.15;2.50;;;;;;;20.77;35.13;101657.63;5073110;28;20032;-76
2022/05/30 00:08:11;;;;;;;3.67;1.70;;;;;;;20.80;35.07;101653.34;5073053;28;20024;-76
2022/05/30 00:10:37;;;;;;;4.55;1.92;;;;;;;20.61;35.38;101642.16;5072879;28;20552;-76
2022/05/30 00:13:03;;;;;;;7.32;3.35;;;;;;;20.49;35.87;101651.41;5072931;28;20029;-75
2022/05/30 00:15:29;;;;;;;5.53;2.58;;;;;;;20.52;35.74;101647.09;5086253;28;20059;-76
2022/05/30 00:17:56;;;;;;;6.60;2.65;;;;;;;20.56;35.75;101653.53;5093080;28;20031;-76
2022/05/30 00:20:23;;;;;;;4.35;1.85;;;;;;;20.57;35.68;101646.81;5092996;28;20032;-75
2022/05/30 00:22:48;;;;;;;9.05;2.40;;;;;;;20.53;35.60;101646.72;5093040;28;20025;-75
2022/05/30 00:25:14;;;;;;;4.78;2.05;;;;;;;20.46;35.68;101650.13;5092699;28;20039;-75
2022/05/30 00:27:40;;;;;;;5.88;2.22;;;;;;;20.54;35.59;101647.53;5092987;28;20050;-75
2022/05/30 00:30:07;;;;;;;5.72;2.25;;;;;;;20.48;35.66;101636.72;5087422;28;20039;-76
2022/05/30 00:32:34;;;;;;;5.30;2.65;;;;;;;20.42;35.65;101638.09;5090914;28;20028;-76
2022/05/30 00:35:00;;;;;;;7.40;2.15;;;;;;;20.39;35.77;101632.44;5092807;28;20025;-76
2022/05/30 00:37:27;;;;;;;6.60;2.25;;;;;;;20.40;35.75;101637.66;5092794;28;20036;-76
2022/05/30 00:39:53;;;;;;;6.03;2.67;;;;;;;20.45;35.76;101617.97;5092748;28;20039;-76
2022/05/30 00:42:21;;;;;;;4.93;2.42;;;;;;;20.40;35.84;101615.47;5092717;28;20432;-76
2022/05/30 00:44:48;;;;;;;5.57;1.90;;;;;;;20.35;35.81;101623.25;5089168;28;20471;-75
2022/05/30 00:47:16;;;;;;;5.00;2.25;;;;;;;20.32;35.79;101615.63;5092658;28;20422;-75
2022/05/30 00:49:44;;;;;;;2.83;1.67;;;;;;;20.26;36.08;101617.06;5092648;28;20474;-76
2022/05/30 00:52:15;;;;;;;7.53;3.10;;;;;;;20.28;35.96;101606.41;5084258;28;20104;-75
2022/05/30 00:54:54;;;;;;;5.90;2.50;;;;;;;20.26;36.15;101609.56;5075386;28;20161;-75
2022/05/30 00:57:25;;;;;;;8.77;3.10;;;;;;;20.33;36.11;101597.78;5092527;28;20020;-76
2022/05/30 00:59:52;;;;;;;6.18;2.80;;;;;;;20.29;36.30;101600.50;5092479;28;20028;-75
2022/05/30 01:02:19;;;;;;;5.22;2.30;;;;;;;20.32;36.25;101596.19;5092478;28;20056;-76
2022/05/30 01:07:30;;;;;;;7.00;2.80;;;;;;;20.39;36.18;101588.84;5092783;28;20047;-76
2022/05/30 01:09:56;;;;;;;4.45;2.05;;;;;;;20.45;36.14;101587.44;5092378;28;20111;-76
2022/05/30 01:12:52;;;;;;;7.65;2.45;;;;;;;20.48;36.20;101589.53;5092469;28;20053;-76
2022/05/30 01:15:21;;;;;;;6.22;2.47;;;;;;;20.49;36.19;101582.78;5050828;28;20123;-75
2022/05/30 01:18:08;;;;;;;9.70;2.50;;;;;;;20.46;36.25;101577.13;5052211;28;20037;-76
2022/05/30 01:20:43;;;;;;;9.52;2.42;;;;;;;20.48;36.17;101580.38;5052015;28;20290;-76
2022/05/30 01:23:27;;;;;;;5.22;2.55;;;;;;;20.49;36.43;101577.25;5052001;28;20029;-76
2022/05/30 01:26:28;;;;;;;6.55;2.90;;;;;;;20.50;36.30;101570.53;5051943;28;20049;-75
2022/05/30 01:29:14;;;;;;;7.32;2.08;;;;;;;20.48;36.47;101570.09;5052099;28;20494;-76
2022/05/30 01:31:39;;;;;;;6.90;2.40;;;;;;;20.49;36.44;101568.91;5052010;28;20071;-76
2022/05/30 01:34:05;;;;;;;8.68;2.60;;;;;;;20.55;36.34;101563.88;5052039;28;20506;-76
2022/05/30 01:36:33;;;;;;;5.68;2.38;;;;;;;20.51;36.39;101557.44;5052059;28;20476;-76
2022/05/30 01:38:58;;;;;;;8.05;3.30;;;;;;;20.55;36.32;101552.75;5050790;28;20040;-75
2022/05/30 01:41:24;;;;;;;7.47;2.67;;;;;;;20.54;36.52;101555.91;5051995;28;20029;-76
2022/05/30 01:43:50;;;;;;;6.43;2.58;;;;;;;20.54;36.45;101547.56;5071785;28;20024;-75
2022/05/30 01:46:21;;;;;;;6.68;2.70;;;;;;;20.53;36.54;101546.78;5092137;28;20020;-76
2022/05/30 01:48:48;;;;;;;9.05;3.08;;;;;;;20.49;36.61;101545.91;5087635;28;20043;-76
2022/05/30 01:51:16;;;;;;;8.52;2.38;;;;;;;20.49;36.56;101543.94;5071838;28;20115;-75
2022/05/30 01:53:41;;;;;;;8.27;3.42;;;;;;;20.44;36.60;101543.41;5071937;28;20074;-76
2022/05/30 01:56:07;;;;;;;10.88;3.13;;;;;;;20.37;36.92;101544.00;5071737;28;20410;-76
2022/05/30 01:58:33;;;;;;;10.30;2.60;;;;;;;20.33;36.81;101540.34;5071659;28;20060;-75
2022/05/30 02:01:04;;;;;;;9.98;3.15;;;;;;;20.27;36.92;101533.47;5082861;28;20093;-75
2022/05/30 02:03:30;;;;;;;9.40;3.35;;;;;;;20.24;36.95;101532.19;5090688;28;20478;-75
2022/05/30 02:05:56;;;;;;;6.57;2.53;;;;;;;20.27;36.87;101522.34;5090682;28;20032;-75
2022/05/30 02:08:22;;;;;;;8.02;2.72;;;;;;;20.22;36.96;101525.41;5090610;28;20471;-76
2022/05/30 02:10:49;;;;;;;8.68;3.58;;;;;;;20.19;36.90;101526.94;5091950;28;20111;-75
2022/05/30 02:13:15;;;;;;;10.38;3.40;;;;;;;20.13;37.09;101522.81;5086299;28;20050;-75
2022/05/30 02:18:25;;;;;;;8.70;3.10;;;;;;;19.32;38.68;101510.34;5073589;28;20545;-75
2022/05/30 02:20:50;;;;;;;6.80;2.80;;;;;;;19.21;38.72;101512.03;5074773;28;20021;-75
2022/05/30 02:23:17;;;;;;;7.32;2.35;;;;;;;19.13;39.01;101511.84;5074715;28;20028;-75
2022/05/30 02:25:44;;;;;;;8.15;2.92;;;;;;;19.12;39.04;101503.88;5074523;28;20037;-75
2022/05/30 02:28:09;;;;;;;7.68;2.90;;;;;;;19.09;38.96;101504.56;5076211;28;20441;-75
2022/05/30 02:30:35;;;;;;;7.38;2.83;;;;;;;19.15;38.96;101502.34;5074636;28;20024;-75
2022/05/30 02:38:29;;;;;;;8.40;2.78;;;;;;;19.09;39.17;101485.19;5069528;28;20071;-75
2022/05/30 02:40:54;;;;;;;6.90;3.03;;;;;;;19.08;39.29;101483.56;5071811;28;20047;-75
2022/05/30 02:43:20;;;;;;;8.75;3.10;;;;;;;19.08;39.31;101483.56;5075774;28;20100;-75
2022/05/30 02:45:45;;;;;;;6.63;2.70;;;;;;;19.11;39.33;101482.84;5074362;28;20028;-75
2022/05/30 02:48:11;;;;;;;11.13;3.55;;;;;;;19.10;39.23;101472.94;5075420;28;20479;-75
2022/05/30 02:50:36;;;;;;;10.30;3.22;;;;;;;19.09;39.20;101468.56;5074299;28;20489;-75
2022/05/30 02:53:02;;;;;;;6.60;2.60;;;;;;;19.14;39.49;101473.84;5074455;28;20021;-75
2022/05/30 02:55:28;;;;;;;13.85;3.60;;;;;;;18.94;39.93;101469.31;5072939;28;20024;-75
2022/05/30 02:57:53;;;;;;;10.98;3.60;;;;;;;19.07;39.57;101465.34;5074397;28;20463;-75
2022/05/30 03:00:19;;;;;;;6.68;2.65;;;;;;;19.21;39.50;101465.75;5074060;28;20530;-75
2022/05/30 03:02:44;;;;;;;8.75;2.92;;;;;;;19.09;39.64;101452.75;5074043;28;20434;-76
2022/05/30 03:05:10;;;;;;;10.63;3.20;;;;;;;19.10;39.76;101464.63;5073920;28;20021;-75
2022/05/30 03:07:36;;;;;;;10.75;2.95;;;;;;;19.14;39.40;101454.47;5073967;28;20035;-75
2022/05/30 03:10:03;;;;;;;13.65;2.92;;;;;;;19.31;39.38;101447.78;5073920;28;20012;-75
2022/05/30 03:12:29;;;;;;;5.80;2.20;;;;;;;19.50;38.85;101441.56;5073599;28;20101;-75
2022/05/30 03:14:55;;;;;;;7.22;3.05;;;;;;;19.56;38.75;101440.13;5074372;28;20375;-75
2022/05/30 03:17:20;;;;;;;13.52;3.47;;;;;;;19.49;38.82;101439.94;5073729;28;20020;-75
2022/05/30 03:19:46;;;;;;;11.30;3.35;;;;;;;19.42;38.86;101443.31;5073596;28;20047;-75
2022/05/30 03:22:11;;;;;;;7.85;3.00;;;;;;;19.38;38.94;101434.13;5073749;28;20016;-76
2022/05/30 03:24:37;;;;;;;10.15;3.25;;;;;;;19.46;38.94;101429.56;5073645;28;20081;-76
2022/05/30 03:27:03;;;;;;;9.55;3.30;;;;;;;19.48;38.83;101435.56;5073573;28;20036;-75
2022/05/30 03:29:28;;;;;;;6.95;2.55;;;;;;;19.74;38.08;101426.75;5072470;28;20024;-75
2022/05/30 03:31:54;;;;;;;7.50;2.60;;;;;;;19.80;38.07;101426.13;5072164;28;20171;-75
2022/05/30 03:34:20;;;;;;;11.55;3.10;;;;;;;19.80;38.02;101415.03;5073438;28;20020;-75
2022/05/30 03:36:46;;;;;;;11.77;2.85;;;;;;;19.74;38.12;101412.88;5075372;28;20031;-76
2022/05/30 03:39:13;;;;;;;7.18;2.80;;;;;;;19.77;38.00;101418.50;5073298;28;20031;-75
2022/05/30 03:41:39;;;;;;;7.75;2.40;;;;;;;19.80;38.00;101403.94;5072688;28;20028;-75
2022/05/30 03:44:04;;;;;;;12.05;3.35;;;;;;;19.67;38.36;101406.00;5073055;28;20020;-75
2022/05/30 03:46:31;;;;;;;6.72;2.85;;;;;;;19.72;38.29;101423.50;5072167;28;20031;-76
2022/05/30 03:48:57;;;;;;;10.73;2.92;;;;;;;19.83;38.10;101407.94;5072295;28;20662;-75
2022/05/30 03:51:23;;;;;;;7.15;2.92;;;;;;;19.86;38.00;101410.78;5072206;28;20056;-75
2022/05/30 03:53:51;;;;;;;11.77;2.88;;;;;;;19.89;38.12;101412.06;5070792;28;21318;-76
2022/05/30 03:56:17;;;;;;;13.50;3.20;;;;;;;19.92;38.08;101409.38;5069943;28;20115;-75
2022/05/30 03:58:43;;;;;;;7.90;3.65;;;;;;;19.95;38.07;101408.66;5071461;28;20086;-75
2022/05/30 04:01:09;;;;;;;10.20;3.22;;;;;;;19.90;38.31;101406.16;5072130;28;20804;-76
2022/05/30 04:03:35;;;;;;;7.68;3.28;;;;;;;19.84;38.42;101404.81;5072136;28;20056;-75
2022/05/30 04:06:00;;;;;;;8.80;2.80;;;;;;;19.95;38.14;101397.56;5072083;28;20021;-75
2022/05/30 04:08:26;;;;;;;7.85;2.58;;;;;;;19.85;38.45;101400.88;5072098;28;20086;-75
2022/05/30 04:10:55;;;;;;;6.90;3.00;;;;;;;19.89;38.33;101400.97;5072074;28;20013;-75
2022/05/30 04:13:21;;;;;;;9.95;2.92;;;;;;;19.85;38.51;101403.66;5070933;28;20028;-75
2022/05/30 04:15:46;;;;;;;9.00;3.08;;;;;;;19.91;38.33;101398.63;5072204;28;20047;-76
2022/05/30 04:18:12;;;;;;;10.35;3.25;;;;;;;19.94;38.28;101395.13;5072935;28;20135;-76
2022/05/30 04:20:40;;;;;;;7.20;2.70;;;;;;;19.93;38.44;101394.31;5072895;28;20050;-75
2022/05/30 04:23:05;;;;;;;5.68;2.47;;;;;;;19.94;38.42;101397.91;5090630;28;20024;-75
2022/05/30 04:25:31;;;;;;;6.95;2.72;;;;;;;19.84;38.66;101388.19;5092895;28;20082;-76
2022/05/30 04:27:57;;;;;;;11.25;2.72;;;;;;;19.88;38.54;101388.28;5093024;28;20046;-76
2022/05/30 04:30:23;;;;;;;8.30;2.92;;;;;;;19.77;38.85;101385.22;5090818;28;20032;-76
2022/05/30 04:32:49;;;;;;;9.35;3.10;;;;;;;19.85;38.67;101381.47;5072645;28;20026;-76
2022/05/30 04:35:15;;;;;;;6.88;3.03;;;;;;;19.92;38.74;101384.41;5071673;28;20078;-77
2022/05/30 04:37:40;;;;;;;10.15;3.00;;;;;;;19.99;38.68;101382.97;5072674;28;20024;-76
2022/05/30 04:40:09;;;;;;;12.85;3.67;;;;;;;19.84;38.95;101381.81;5084103;28;20066;-76
2022/05/30 04:42:35;;;;;;;9.70;3.47;;;;;;;19.80;38.88;101381.75;5091186;28;20027;-76
2022/05/30 04:45:01;;;;;;;7.55;3.20;;;;;;;19.84;38.81;101376.28;5072415;28;20051;-76
2022/05/30 04:47:26;;;;;;;6.82;2.80;;;;;;;19.85;38.81;101375.91;5072449;28;20017;-75
2022/05/30 04:49:52;;;;;;;8.85;3.67;;;;;;;19.84;38.93;101373.50;5072461;28;20028;-76
2022/05/30 04:52:18;;;;;;;7.18;3.03;;;;;;;19.98;38.69;101371.06;5072434;28;20020;-76
2022/05/30 04:54:43;;;;;;;16.13;3.75;;;;;;;19.97;38.65;101375.00;5072462;28;20017;-76
2022/05/30 04:57:09;;;;;;;13.15;3.28;;;;;;;19.97;38.86;101365.88;5071094;28;20025;-75
2022/05/30 04:59:38;;;;;;;11.55;4.03;;;;;;;19.87;39.05;101365.25;5072197;28;20391;-76
2022/05/30 05:02:04;;;;;;;10.37;3.30;;;;;;;19.86;39.19;101366.44;5072253;28;20028;-76
2022/05/30 05:04:30;;;;;;;9.95;4.10;;;;;;;19.85;39.04;101355.69;5072248;28;20261;-75
2022/05/30 05:06:56;;;;;;;6.78;2.65;;;;;;;19.79;39.17;101357.94;5072324;28;20054;-75
2022/05/30 05:09:40;;;;;;;9.88;3.50;;;;;;;19.75;39.32;101353.50;5072266;28;20025;-76
2022/05/30 05:12:07;;;;;;;9.52;2.80;;;;;;;19.88;39.15;101353.03;5072290;28;20024;-76
2022/05/30 05:14:32;;;;;;;10.75;2.50;;;;;;;19.87;39.11;101361.69;5089271;28;20024;-76
2022/05/30 05:16:58;;;;;;;13.15;3.40;;;;;;;19.90;39.09;101352.66;5076517;28;20050;-75
2022/05/30 05:19:24;;;;;;;16.63;4.53;;;;;;;19.82;39.21;101343.38;5072002;28;20033;-75
2022/05/30 05:21:50;;;;;;;10.63;3.22;;;;;;;19.82;39.38;101346.16;5072114;28;20025;-75
2022/05/30 05:24:16;;;;;;;13.23;4.05;;;;;;;20.02;38.92;101338.66;5072190;28;20037;-74
2022/05/30 05:26:47;;;;;;;10.07;2.60;;;;;;;20.00;39.04;101342.97;5090177;28;20040;-75
2022/05/30 05:29:13;;;;;;;12.27;3.63;;;;;;;20.04;38.97;101330.00;5092356;28;20431;-74
2022/05/30 05:31:39;;;;;;;9.02;2.88;;;;;;;20.00;38.94;101329.91;5092243;28;20058;-75
2022/05/30 05:34:08;;;;;;;20.30;4.43;;;;;;;19.94;39.00;101328.56;5090927;28;20115;-74
2022/05/30 05:36:38;;;;;;;12.20;3.45;;;;;;;19.99;39.05;101328.28;5092218;28;20034;-75
2022/05/30 05:39:05;;;;;;;8.18;2.88;;;;;;;19.92;39.05;101326.16;5092181;28;20082;-75
2022/05/30 05:41:31;;;;;;;5.97;2.67;;;;;;;19.98;38.98;101328.66;5092147;28;20028;-74
2022/05/30 05:43:57;;;;;;;10.90;3.40;;;;;;;20.09;38.75;101313.84;5080056;28;20032;-76
2022/05/30 05:46:26;;;;;;;10.65;3.00;;;;;;;20.12;38.69;101321.44;5070584;28;20398;-75
2022/05/30 05:48:53;;;;;;;7.97;2.60;;;;;;;20.09;38.66;101321.38;5071973;28;20035;-76
2022/05/30 05:51:20;;;;;;;10.77;3.38;;;;;;;20.06;38.77;101317.34;5072249;28;20020;-75
2022/05/30 05:53:46;;;;;;;9.23;3.08;;;;;;;20.10;38.70;101320.19;5075786;28;20056;-76
2022/05/30 05:56:27;;;;;;;8.70;3.88;;;;;;;20.15;38.63;101331.00;5074231;28;20063;-76
2022/05/30 05:58:53;;;;;;;10.82;3.03;;;;;;;20.14;38.58;101309.97;5074456;28;20387;-76
2022/05/30 06:01:28;;;;;;;12.43;2.45;;;;;;;20.12;38.55;101307.59;5075481;28;20051;-76
2022/05/30 06:03:57;;;;;;;8.43;3.13;;;;;;;20.09;38.64;101307.50;5075445;28;20104;-76
2022/05/30 06:06:23;;;;;;;9.18;3.47;;;;;;;20.19;38.42;101313.28;5075536;28;20059;-76
2022/05/30 06:08:50;;;;;;;8.25;2.55;;;;;;;20.27;38.33;101317.00;5075416;28;20024;-76
2022/05/30 06:11:16;;;;;;;10.45;2.58;;;;;;;20.19;38.48;101310.50;5075388;28;20075;-76
2022/05/30 06:13:44;;;;;;;18.13;3.38;;;;;;;20.15;38.48;101300.50;5084751;28;20032;-76
2022/05/30 06:16:17;;;;;;;6.75;2.83;;;;;;;20.20;38.38;101305.75;5081555;28;20041;-75
2022/05/30 06:18:43;;;;;;;10.38;3.13;;;;;;;20.14;38.54;101308.00;5076195;28;20036;-75
2022/05/30 06:21:09;;;;;;;8.32;2.92;;;;;;;20.20;38.31;101303.00;5075215;28;20391;-75
2022/05/30 06:23:35;;;;;;;7.88;2.60;;;;;;;20.13;38.67;101302.84;5074968;28;20032;-75
2022/05/30 06:26:05;;;;;;;11.10;3.30;;;;;;;20.02;38.86;101301.78;5074776;28;20045;-75
2022/05/30 06:28:32;;;;;;;;;;;;;;;20.02;38.94;101296.25;5075423;28;20032;-76
2022/05/30 06:30:57;;;;;;;8.50;2.70;;;;;;;20.21;38.42;101293.50;5075097;28;19920;-76
2022/05/30 06:33:23;;;;;;;7.97;2.47;;;;;;;20.17;38.53;101279.53;5075024;28;20021;-75
2022/05/30 06:35:49;;;;;;;13.52;3.83;;;;;;;20.04;38.76;101291.16;5074962;28;20541;-76
2022/05/30 06:38:16;;;;;;;13.23;3.83;;;;;;;20.03;38.76;101293.13;5074937;28;20031;-75
2022/05/30 06:40:42;;;;;;;8.50;3.45;;;;;;;20.01;38.84;101286.31;5074972;28;20112;-76
2022/05/30 06:43:09;;;;;;;9.10;3.67;;;;;;;20.13;38.64;101267.56;5081179;28;20478;-75
2022/05/30 06:45:35;;;;;;;10.45;3.50;;;;;;;20.11;38.68;101291.31;5086745;28;20029;-75
2022/05/30 06:48:01;;;;;;;9.77;3.55;;;;;;;20.06;38.79;101288.81;5074683;28;20490;-75
2022/05/30 06:50:27;;;;;;;10.50;3.47;;;;;;;20.03;38.93;101289.56;5093520;28;20036;-75
2022/05/30 06:52:53;;;;;;;21.38;3.67;;;;;;;19.97;39.09;101282.69;5094839;28;20016;-74
2022/05/30 06:55:19;;;;;;;15.68;3.85;;;;;;;20.07;38.93;101285.66;5093553;28;20032;-74
2022/05/30 07:00:30;;;;;;;9.25;3.35;;;;;;;20.04;38.76;101271.75;5084869;28;20122;-75
2022/05/30 07:02:57;;;;;;;11.02;2.95;;;;;;;20.14;38.86;101282.25;5074229;28;20028;-73
2022/05/30 07:05:23;;;;;;;6.32;2.70;;;;;;;20.15;38.96;101275.53;5073306;28;20029;-75
2022/05/30 07:07:50;;;;;;;11.85;3.28;;;;;;;20.24;38.66;101273.31;5071561;28;20422;-74
2022/05/30 07:10:15;;;;;;;8.38;4.15;;;;;;;20.25;38.68;101269.38;5073032;28;20023;-74
2022/05/30 07:12:41;;;;;;;10.77;3.20;;;;;;;20.22;38.69;101264.56;5072562;28;20028;-74
2022/05/30 07:15:07;;;;;;;18.05;3.65;;;;;;;20.10;39.00;101264.72;5073931;28;20387;-76
2022/05/30 07:17:33;;;;;;;15.73;3.88;;;;;;;20.16;38.80;101263.25;5071974;28;20028;-76
2022/05/30 07:19:59;;;;;;;15.85;3.83;;;;;;;20.25;38.66;101263.81;5072928;28;20040;-74
2022/05/30 07:22:24;;;;;;;9.02;3.40;;;;;;;20.34;38.71;101267.19;5072463;28;20066;-75
2022/05/30 07:24:50;;;;;;;9.27;2.83;;;;;;;20.33;38.65;101257.28;5072243;28;20503;-75
2022/05/30 07:27:16;;;;;;;11.30;3.45;;;;;;;20.31;38.75;101261.56;5073787;28;20054;-74
2022/05/30 07:29:41;;;;;;;18.88;5.15;;;;;;;20.36;38.72;101262.09;5073833;28;20035;-74
2022/05/30 07:32:08;;;;;;;8.52;3.55;;;;;;;20.30;38.85;101251.63;5073379;28;20093;-74
2022/05/30 07:34:34;;;;;;;8.27;3.28;;;;;;;20.36;38.72;101256.53;5072584;28;20020;-74
2022/05/30 07:37:00;;;;;;;12.18;4.25;;;;;;;20.56;38.45;101251.78;5072198;28;20040;-74
2022/05/30 07:39:25;;;;;;;10.55;2.85;;;;;;;20.63;38.30;101251.09;5071999;28;20021;-74
2022/05/30 07:41:51;;;;;;;15.05;3.63;;;;;;;20.76;38.13;101245.00;5072066;28;20035;-74
2022/05/30 07:44:17;;;;;;;10.07;3.72;;;;;;;20.70;38.18;101251.22;5072917;28;20433;-75
2022/05/30 07:46:44;;;;;;;11.40;3.83;;;;;;;20.77;38.22;101245.81;5073017;28;20422;-75
2022/05/30 07:49:14;;;;;;;15.45;4.13;;;;;;;20.83;37.98;101241.53;5073385;28;20047;-75
2022/05/30 07:51:42;;;;;;;13.52;2.80;;;;;;;21.03;37.83;101240.31;5073478;28;20048;-75
2022/05/30 07:54:07;;;;;;;10.63;3.38;;;;;;;21.10;37.79;101230.50;5073544;28;20460;-75
2022/05/30 07:56:33;;;;;;;8.57;2.50;;;;;;;21.37;37.25;101225.75;5073616;28;20020;-75
2022/05/30 07:58:59;;;;;;;14.93;4.10;;;;;;;21.53;37.07;101226.38;5073228;28;20471;-75
2022/05/30 08:01:25;;;;;;;11.40;2.90;;;;;;;21.64;36.99;101219.00;5073253;28;20104;-75
2022/05/30 08:03:51;;;;;;;6.90;2.90;;;;;;;21.70;37.12;101223.06;5072041;28;20444;-75
2022/05/30 08:06:24;;;;;;;10.05;2.63;;;;;;;21.73;36.91;101210.38;5073225;28;20032;-75
2022/05/30 08:08:51;;;;;;;6.97;2.22;;;;;;;21.80;36.72;101207.69;5073216;28;20078;-75
2022/05/30 08:11:17;;;;;;;8.40;2.42;;;;;;;22.02;36.50;101208.75;5073073;28;20024;-75
2022/05/30 08:13:45;;;;;;;9.73;2.97;;;;;;;22.27;36.24;101206.28;5072835;28;20024;-75
2022/05/30 08:16:12;;;;;;;5.40;2.53;;;;;;;21.93;36.24;101203.50;5072747;28;20051;-75
2022/05/30 08:18:38;;;;;;;12.27;2.58;;;;;;;21.84;36.30;101195.44;5073346;28;20442;-75
2022/05/30 08:21:04;;;;;;;9.48;2.10;;;;;;;22.26;35.63;101197.13;5072893;28;20043;-75
2022/05/30 08:23:31;;;;;;;10.75;2.95;;;;;;;22.55;35.22;101202.97;5072902;28;20124;-75
2022/05/30 08:25:57;;;;;;;5.38;1.98;;;;;;;22.81;34.79;101182.50;5072665;28;20102;-74
2022/05/30 08:28:23;;;;;;;9.52;2.83;;;;;;;23.11;34.47;101190.72;5072843;28;20025;-75
2022/05/30 08:30:49;;;;;;;14.30;2.53;;;;;;;22.81;34.80;101188.88;5071522;28;20185;-74
2022/05/30 08:33:18;;;;;;;7.07;2.60;;;;;;;22.93;34.68;101196.97;5071593;28;20064;-74
2022/05/30 08:35:45;;;;;;;5.72;2.50;;;;;;;22.89;34.08;101192.53;5071404;28;20028;-74
2022/05/30 08:38:12;;;;;;;5.97;1.83;;;;;;;22.94;33.96;101183.84;5072697;28;20058;-74
2022/05/30 08:43:38;;;;;;;7.47;2.60;;;;;;;23.12;33.41;101175.59;5072932;28;20448;-75
2022/05/30 08:46:33;;;;;;;9.75;2.38;;;;;;;23.05;34.22;101175.53;5071235;28;20025;-74
2022/05/30 08:49:28;;;;;;;8.85;2.70;;;;;;;22.75;34.07;101179.31;5070914;28;20549;-75
2022/05/30 08:52:15;;;;;;;6.22;1.98;;;;;;;22.65;34.03;101175.22;5071285;28;20454;-75
2022/05/30 08:55:03;;;;;;;4.55;2.00;;;;;;;22.73;33.78;101178.06;5072565;28;20024;-75
2022/05/30 08:57:32;;;;;;;8.73;3.20;;;;;;;22.83;33.78;101166.22;5072474;28;20029;-75
2022/05/30 09:00:15;;;;;;;9.77;2.50;;;;;;;22.92;33.99;101172.28;5072368;28;20032;-75
2022/05/30 09:02:50;;;;;;;5.70;2.10;;;;;;;22.95;33.68;101168.72;5072405;28;20540;-75
2022/05/30 09:05:35;;;;;;;4.75;2.03;;;;;;;22.41;33.83;101153.53;5072404;28;20025;-75
2022/05/30 09:08:08;;;;;;;6.43;2.10;;;;;;;22.55;33.76;101159.22;5072396;28;20025;-75
2022/05/30 09:11:03;;;;;;;4.13;1.90;;;;;;;22.57;33.29;101158.84;5072076;28;20021;-76
2022/05/30 09:13:40;;;;;;;5.03;1.70;;;;;;;22.13;33.85;101163.19;5069551;28;20090;-75
2022/05/30 09:16:16;;;;;;;3.92;2.20;;;;;;;22.37;33.46;101153.50;5072340;28;20040;-75
2022/05/30 09:18:46;;;;;;;5.10;1.80;;;;;;;22.23;33.72;101155.34;5072145;28;20097;-75
2022/05/30 09:21:14;;;;;;;;;;;;;;;22.25;33.56;101150.19;5072660;28;20483;-75
2022/05/30 09:23:40;;;;;;;7.95;1.77;;;;;;;22.43;33.19;101145.59;5072191;28;19912;-75
2022/05/30 09:26:11;;;;;;;5.65;2.05;;;;;;;22.64;33.27;101153.31;5072030;28;20087;-75
2022/05/30 09:28:41;;;;;;;8.50;2.17;;;;;;;22.55;33.24;101141.72;5076432;28;20410;-75
2022/05/30 09:31:10;;;;;;;;;;;;;;;22.73;32.68;101147.41;5076704;28;20020;-75
2022/05/30 09:33:39;;;;;;;5.50;2.03;;;;;;;23.01;32.56;101138.50;5076210;28;20001;-75
2022/05/30 09:36:18;;;;;;;5.28;1.95;;;;;;;22.95;32.59;101143.63;5074845;28;20300;-76
2022/05/30 09:38:48;;;;;;;4.78;1.80;;;;;;;23.10;32.75;101138.97;5076057;28;20033;-75
2022/05/30 09:41:20;;;;;;;5.03;1.83;;;;;;;22.88;33.24;101136.03;5074852;28;20031;-75
2022/05/30 09:43:51;;;;;;;6.07;1.40;;;;;;;23.17;32.44;101139.00;5075980;28;20097;-75
2022/05/30 09:46:38;;;;;;;6.43;1.63;;;;;;;23.53;32.38;101129.63;5075916;28;20036;-76
2022/05/30 09:49:36;;;;;;;4.30;1.58;;;;;;;23.66;32.11;101127.34;5075948;28;20103;-75
2022/05/30 09:52:24;;;;;;;7.53;1.80;;;;;;;23.80;31.95;101127.38;5094343;28;20033;-75
2022/05/30 09:54:51;;;;;;;6.07;1.90;;;;;;;23.86;31.20;101124.19;5075738;28;20021;-75
2022/05/30 09:57:25;;;;;;;10.70;1.60;;;;;;;23.84;31.02;101115.44;5075733;28;20107;-76
2022/05/30 09:59:54;;;;;;;6.50;1.50;;;;;;;23.60;31.47;101122.50;5075496;28;20372;-75
2022/05/30 10:02:33;;;;;;;6.18;1.92;;;;;;;23.29;31.52;101115.59;5074292;28;20483;-75
2022/05/30 10:05:01;;;;;;;7.75;2.08;;;;;;;23.37;31.36;101114.44;5075591;28;20017;-75
2022/05/30 10:07:27;;;;;;;5.82;1.67;;;;;;;23.09;32.18;101112.28;5075492;28;20386;-75
2022/05/30 10:10:03;;;;;;;8.57;1.73;;;;;;;23.37;31.72;101106.06;5075421;28;20094;-76
2022/05/30 10:12:32;;;;;;;6.45;1.60;;;;;;;23.79;30.92;101109.03;5074439;28;20028;-75
2022/05/30 10:14:58;;;;;;;6.47;1.73;;;;;;;23.87;30.87;101111.84;5075430;28;20116;-75
2022/05/30 10:17:35;;;;;;;8.23;1.92;;;;;;;24.37;30.12;101109.16;5075222;28;20058;-75
2022/05/30 10:20:12;;;;;;;5.53;1.75;;;;;;;24.69;30.03;101106.34;5073839;28;20471;-75
2022/05/30 10:29:02;;;;;;;9.18;2.50;;;;;;;23.88;30.39;101105.06;5063769;28;20394;-74
2022/05/30 10:32:03;;;;;;;5.97;2.10;;;;;;;23.88;30.41;101093.88;5071886;28;20037;-75
2022/05/30 10:34:51;;;;;;;3.78;2.30;;;;;;;23.72;30.25;101094.25;5075054;28;20033;-74
2022/05/30 10:37:32;;;;;;;7.20;2.17;;;;;;;23.48;30.71;101098.53;5074557;28;20030;-74
2022/05/30 10:40:32;;;;;;;6.90;1.85;;;;;;;23.32;30.81;101100.84;5074887;28;20110;-74
2022/05/30 10:43:13;;;;;;;;;;;;;;;23.10;31.33;101105.50;5075364;28;20158;-75
2022/05/30 10:46:02;;;;;;;7.40;2.13;;;;;;;23.17;31.63;101094.41;5074830;28;20368;-75
2022/05/30 10:48:49;;;;;;;18.90;3.22;;;;;;;22.85;31.85;101096.97;5074971;28;20020;-75
2022/05/30 10:51:26;;;;;;;8.20;2.90;;;;;;;23.03;31.99;101092.34;5070491;28;20055;-74
2022/05/30 10:54:15;;;;;;;6.60;2.22;;;;;;;22.92;31.92;101095.06;5073386;28;20032;-75
2022/05/30 10:56:45;;;;;;;5.45;1.48;;;;;;;22.84;32.02;101087.03;5073381;28;20525;-75
2022/05/30 10:59:26;;;;;;;2.47;1.40;;;;;;;22.80;32.16;101098.13;5074554;28;20082;-75
2022/05/30 11:02:09;;;;;;;7.63;2.08;;;;;;;22.94;32.18;101097.47;5074616;28;20032;-75
2022/05/30 11:04:48;;;;;;;4.88;1.60;;;;;;;22.98;32.28;101085.16;5074610;28;20016;-75
2022/05/30 11:07:23;;;;;;;2.88;1.23;;;;;;;23.06;32.94;101088.00;5073256;28;20025;-75
2022/05/30 11:10:10;;;;;;;8.55;2.22;;;;;;;23.40;32.48;101083.75;5073064;28;20029;-75
2022/05/30 11:12:39;;;;;;;6.20;2.05;;;;;;;23.60;32.55;101081.47;5074375;28;20544;-75
2022/05/30 11:15:38;;;;;;;7.78;2.17;;;;;;;23.77;32.13;101074.34;5073030;28;20123;-74
2022/05/30 11:18:24;;;;;;;5.90;1.55;;;;;;;23.76;31.48;101081.13;5074292;28;20032;-74
2022/05/30 11:21:18;;;;;;;13.13;2.33;;;;;;;23.96;31.47;101078.78;5074057;28;20541;-75
2022/05/30 11:23:45;;;;;;;10.63;2.40;;;;;;;23.91;31.54;101068.00;5074080;28;20104;-74
2022/05/30 11:26:19;;;;;;;2.78;1.05;;;;;;;23.78;31.20;101062.78;5073406;28;20115;-74
2022/05/30 11:28:57;;;;;;;7.78;1.92;;;;;;;23.73;30.97;101063.19;5073946;28;20140;-74
2022/05/30 11:31:50;;;;;;;8.40;2.25;;;;;;;23.55;31.22;101065.09;5073971;28;20107;-74
2022/05/30 11:34:34;;;;;;;6.80;1.95;;;;;;;23.70;31.39;101057.59;5072554;28;20511;-75
2022/05/30 11:37:29;;;;;;;10.88;1.92;;;;;;;23.24;32.27;101053.44;5072585;28;20032;-74
2022/05/30 11:40:29;;;;;;;9.02;2.15;;;;;;;23.05;32.86;101044.56;5073742;28;20033;-74
2022/05/30 11:43:10;;;;;;;8.43;2.33;;;;;;;23.24;32.91;101044.25;5064512;28;20040;-75
2022/05/30 11:45:57;;;;;;;7.25;2.30;;;;;;;23.52;32.75;101049.16;5073600;28;20025;-75
2022/05/30 11:48:31;;;;;;;9.32;2.22;;;;;;;23.84;32.35;101040.88;5072226;28;20472;-75
2022/05/30 11:51:07;;;;;;;7.03;2.05;;;;;;;24.01;31.95;101033.72;5072930;28;20028;-75
2022/05/30 11:53:47;;;;;;;6.40;1.85;;;;;;;24.28;31.90;101029.34;5073539;28;20078;-75
2022/05/30 11:56:19;;;;;;;3.67;1.65;;;;;;;24.44;31.85;101025.38;5072116;28;20035;-74
2022/05/30 11:58:44;;;;;;;7.15;2.00;;;;;;;24.88;31.72;101028.47;5073303;28;20024;-75
2022/05/30 12:01:11;;;;;;;4.90;1.98;;;;;;;25.04;31.68;101018.88;5073356;28;20031;-75